sensor_id;sensor_type;location;lat;lon;timestamp;P1;durP1;ratioP1;P2;durP2;ratioP2
63738;SDS011;68816;45.558;10.070;2023-05-14T00:00:37;7.50;;;4.68;;
63738;SDS011;68816;45.558;10.070;2023-05-14T00:03:03;6.80;;;4.80;;
63738;SDS011;68816;45.558;10.070;2023-05-14T00:05:28;6.75;;;5.03;;
63738;SDS011;68816;45.558;10.070;2023-05-14T00:07:54;5.32;;;4.68;;
63738;SDS011;68816;45.558;10.070;2023-05-14T00:10:19;5.45;;;4.72;;
63738;SDS011;68816;45.558;10.070;2023-05-14T00:12:45;5.95;;;4.32;;
63738;SDS011;68816;45.558;10.070;2023-05-14T00:15:11;6.85;;;4.45;;
63738;SDS011;68816;45.558;10.070;2023-05-14T00:17:37;6.97;;;4.20;;
63738;SDS011;68816;45.558;10.070;2023-05-14T00:20:03;7.32;;;4.10;;
63738;SDS011;68816;45.558;10.070;2023-05-14T00:22:31;9.52;;;4.40;;
63738;SDS011;68816;45.558;10.070;2023-05-14T00:24:57;7.72;;;4.82;;
63738;SDS011;68816;45.558;10.070;2023-05-14T00:27:23;6.25;;;4.72;;
63738;SDS011;68816;45.558;10.070;2023-05-14T00:29:48;8.15;;;5.32;;
63738;SDS011;68816;45.558;10.070;2023-05-14T00:32:13;7.63;;;5.20;;
63738;SDS011;68816;45.558;10.070;2023-05-14T00:34:39;8.35;;;5.85;;
63738;SDS011;68816;45.558;10.070;2023-05-14T00:37:05;7.13;;;4.90;;
63738;SDS011;68816;45.558;10.070;2023-05-14T00:39:30;7.40;;;5.47;;
63738;SDS011;68816;45.558;10.070;2023-05-14T00:41:56;7.05;;;5.72;;
63738;SDS011;68816;45.558;10.070;2023-05-14T00:44:21;8.93;;;5.70;;
63738;SDS011;68816;45.558;10.070;2023-05-14T00:46:47;8.43;;;5.18;;
63738;SDS011;68816;45.558;10.070;2023-05-14T00:49:14;6.78;;;5.47;;
63738;SDS011;68816;45.558;10.070;2023-05-14T00:51:40;8.10;;;5.43;;
63738;SDS011;68816;45.558;10.070;2023-05-14T00:54:06;8.02;;;5.53;;
63738;SDS011;68816;45.558;10.070;2023-05-14T00:56:33;11.07;;;6.10;;
63738;SDS011;68816;45.558;10.070;2023-05-14T00:58:59;9.95;;;5.80;;
63738;SDS011;68816;45.558;10.070;2023-05-14T01:01:24;8.88;;;6.18;;
63738;SDS011;68816;45.558;10.070;2023-05-14T01:03:52;8.40;;;5.22;;
63738;SDS011;68816;45.558;10.070;2023-05-14T01:06:31;8.55;;;5.25;;
63738;SDS011;68816;45.558;10.070;2023-05-14T01:09:15;6.97;;;5.47;;
63738;SDS011;68816;45.558;10.070;2023-05-14T01:11:54;6.80;;;5.28;;
63738;SDS011;68816;45.558;10.070;2023-05-14T01:16:57;6.75;;;5.30;;
63738;SDS011;68816;45.558;10.070;2023-05-14T01:19:28;7.45;;;6.07;;
63738;SDS011;68816;45.558;10.070;2023-05-14T01:22:01;9.38;;;6.13;;
63738;SDS011;68816;45.558;10.070;2023-05-14T01:24:27;8.50;;;5.82;;
63738;SDS011;68816;45.558;10.070;2023-05-14T01:26:53;8.65;;;5.78;;
63738;SDS011;68816;45.558;10.070;2023-05-14T01:29:25;8.80;;;5.80;;
63738;SDS011;68816;45.558;10.070;2023-05-14T01:31:53;8.77;;;5.80;;
63738;SDS011;68816;45.558;10.070;2023-05-14T01:34:21;8.52;;;6.43;;
63738;SDS011;68816;45.558;10.070;2023-05-14T01:36:49;10.23;;;6.65;;
63738;SDS011;68816;45.558;10.070;2023-05-14T01:39:15;10.13;;;6.30;;
63738;SDS011;68816;45.558;10.070;2023-05-14T01:41:42;11.05;;;6.32;;
63738;SDS011;68816;45.558;10.070;2023-05-14T01:44:09;8.13;;;6.07;;
63738;SDS011;68816;45.558;10.070;2023-05-14T01:46:35;8.98;;;6.30;;
63738;SDS011;68816;45.558;10.070;2023-05-14T01:49:00;10.00;;;5.88;;
63738;SDS011;68816;45.558;10.070;2023-05-14T01:51:26;9.35;;;6.65;;
63738;SDS011;68816;45.558;10.070;2023-05-14T01:53:51;7.95;;;6.10;;
63738;SDS011;68816;45.558;10.070;2023-05-14T01:56:18;8.95;;;6.43;;
63738;SDS011;68816;45.558;10.070;2023-05-14T01:58:47;9.15;;;6.20;;
63738;SDS011;68816;45.558;10.070;2023-05-14T02:01:13;8.02;;;6.10;;
63738;SDS011;68816;45.558;10.070;2023-05-14T02:03:38;10.35;;;6.20;;
63738;SDS011;68816;45.558;10.070;2023-05-14T02:06:04;8.02;;;6.53;;
63738;SDS011;68816;45.558;10.070;2023-05-14T02:08:30;8.52;;;6.65;;
63738;SDS011;68816;45.558;10.070;2023-05-14T02:10:55;8.10;;;5.80;;
63738;SDS011;68816;45.558;10.070;2023-05-14T02:13:20;10.15;;;6.45;;
63738;SDS011;68816;45.558;10.070;2023-05-14T02:15:46;7.93;;;6.30;;
63738;SDS011;68816;45.558;10.070;2023-05-14T02:18:11;10.50;;;6.50;;
63738;SDS011;68816;45.558;10.070;2023-05-14T02:20:37;9.13;;;6.60;;
63738;SDS011;68816;45.558;10.070;2023-05-14T02:23:03;8.85;;;6.22;;
63738;SDS011;68816;45.558;10.070;2023-05-14T02:25:28;9.60;;;6.13;;
63738;SDS011;68816;45.558;10.070;2023-05-14T02:27:54;7.85;;;6.05;;
63738;SDS011;68816;45.558;10.070;2023-05-14T02:30:20;11.38;;;5.65;;
63738;SDS011;68816;45.558;10.070;2023-05-14T02:32:46;6.85;;;5.75;;
63738;SDS011;68816;45.558;10.070;2023-05-14T02:35:11;8.75;;;6.10;;
63738;SDS011;68816;45.558;10.070;2023-05-14T02:37:36;7.78;;;6.30;;
63738;SDS011;68816;45.558;10.070;2023-05-14T02:40:02;8.38;;;6.32;;
63738;SDS011;68816;45.558;10.070;2023-05-14T02:42:28;7.60;;;5.95;;
63738;SDS011;68816;45.558;10.070;2023-05-14T02:44:54;6.45;;;4.85;;
63738;SDS011;68816;45.558;10.070;2023-05-14T02:47:19;5.57;;;4.60;;
63738;SDS011;68816;45.558;10.070;2023-05-14T02:49:45;7.25;;;4.60;;
63738;SDS011;68816;45.558;10.070;2023-05-14T02:52:10;6.75;;;4.40;;
63738;SDS011;68816;45.558;10.070;2023-05-14T02:54:35;4.60;;;3.72;;
63738;SDS011;68816;45.558;10.070;2023-05-14T02:57:01;4.00;;;3.60;;
63738;SDS011;68816;45.558;10.070;2023-05-14T02:59:26;5.18;;;3.45;;
63738;SDS011;68816;45.558;10.070;2023-05-14T03:01:52;4.75;;;3.30;;
63738;SDS011;68816;45.558;10.070;2023-05-14T03:04:17;4.00;;;3.40;;
63738;SDS011;68816;45.558;10.070;2023-05-14T03:06:43;6.80;;;3.72;;
63738;SDS011;68816;45.558;10.070;2023-05-14T03:09:08;4.70;;;3.20;;
63738;SDS011;68816;45.558;10.070;2023-05-14T03:11:34;5.47;;;3.33;;
63738;SDS011;68816;45.558;10.070;2023-05-14T03:13:59;5.80;;;3.60;;
63738;SDS011;68816;45.558;10.070;2023-05-14T03:16:25;5.68;;;3.33;;
63738;SDS011;68816;45.558;10.070;2023-05-14T03:18:51;4.78;;;3.78;;
63738;SDS011;68816;45.558;10.070;2023-05-14T03:21:16;6.63;;;4.05;;
63738;SDS011;68816;45.558;10.070;2023-05-14T03:23:42;5.85;;;4.18;;
63738;SDS011;68816;45.558;10.070;2023-05-14T03:26:07;4.25;;;3.83;;
63738;SDS011;68816;45.558;10.070;2023-05-14T03:28:33;5.20;;;4.10;;
63738;SDS011;68816;45.558;10.070;2023-05-14T03:30:58;5.10;;;3.97;;
63738;SDS011;68816;45.558;10.070;2023-05-14T03:33:24;6.43;;;4.20;;
63738;SDS011;68816;45.558;10.070;2023-05-14T03:35:50;6.30;;;4.40;;
63738;SDS011;68816;45.558;10.070;2023-05-14T03:38:16;7.07;;;4.15;;
63738;SDS011;68816;45.558;10.070;2023-05-14T03:40:42;4.90;;;3.72;;
63738;SDS011;68816;45.558;10.070;2023-05-14T03:43:08;6.15;;;4.07;;
63738;SDS011;68816;45.558;10.070;2023-05-14T03:45:34;6.03;;;4.32;;
63738;SDS011;68816;45.558;10.070;2023-05-14T03:47:59;6.30;;;4.63;;
63738;SDS011;68816;45.558;10.070;2023-05-14T03:50:25;6.28;;;4.68;;
63738;SDS011;68816;45.558;10.070;2023-05-14T03:52:50;5.78;;;4.90;;
63738;SDS011;68816;45.558;10.070;2023-05-14T03:55:17;8.20;;;4.90;;
63738;SDS011;68816;45.558;10.070;2023-05-14T03:57:46;5.40;;;4.65;;
63738;SDS011;68816;45.558;10.070;2023-05-14T04:00:12;6.47;;;5.15;;
63738;SDS011;68816;45.558;10.070;2023-05-14T04:02:38;6.38;;;5.20;;
63738;SDS011;68816;45.558;10.070;2023-05-14T04:05:04;7.38;;;4.97;;
63738;SDS011;68816;45.558;10.070;2023-05-14T04:07:29;8.77;;;5.68;;
63738;SDS011;68816;45.558;10.070;2023-05-14T04:09:55;7.18;;;5.32;;
63738;SDS011;68816;45.558;10.070;2023-05-14T04:12:20;6.50;;;5.53;;
63738;SDS011;68816;45.558;10.070;2023-05-14T04:14:46;5.95;;;4.85;;
63738;SDS011;68816;45.558;10.070;2023-05-14T04:17:11;6.07;;;4.70;;
63738;SDS011;68816;45.558;10.070;2023-05-14T04:19:37;6.47;;;5.00;;
63738;SDS011;68816;45.558;10.070;2023-05-14T04:22:03;6.25;;;4.68;;
63738;SDS011;68816;45.558;10.070;2023-05-14T04:24:29;6.38;;;4.75;;
63738;SDS011;68816;45.558;10.070;2023-05-14T04:26:54;5.50;;;4.22;;
63738;SDS011;68816;45.558;10.070;2023-05-14T04:29:20;8.60;;;4.90;;
63738;SDS011;68816;45.558;10.070;2023-05-14T04:31:45;7.03;;;6.00;;
63738;SDS011;68816;45.558;10.070;2023-05-14T04:34:11;5.30;;;4.25;;
63738;SDS011;68816;45.558;10.070;2023-05-14T04:36:36;5.53;;;4.70;;
63738;SDS011;68816;45.558;10.070;2023-05-14T04:39:02;5.50;;;5.00;;
63738;SDS011;68816;45.558;10.070;2023-05-14T04:41:28;5.25;;;4.75;;
63738;SDS011;68816;45.558;10.070;2023-05-14T04:43:54;6.50;;;5.18;;
63738;SDS011;68816;45.558;10.070;2023-05-14T04:46:20;5.80;;;4.60;;
63738;SDS011;68816;45.558;10.070;2023-05-14T04:48:46;7.13;;;4.93;;
63738;SDS011;68816;45.558;10.070;2023-05-14T04:51:12;6.25;;;4.72;;
63738;SDS011;68816;45.558;10.070;2023-05-14T04:53:38;6.30;;;5.00;;
63738;SDS011;68816;45.558;10.070;2023-05-14T04:56:04;5.50;;;4.85;;
63738;SDS011;68816;45.558;10.070;2023-05-14T04:58:29;6.70;;;4.47;;
63738;SDS011;68816;45.558;10.070;2023-05-14T05:00:56;8.07;;;4.45;;
63738;SDS011;68816;45.558;10.070;2023-05-14T05:03:22;5.95;;;4.47;;
63738;SDS011;68816;45.558;10.070;2023-05-14T05:05:47;5.63;;;4.63;;
63738;SDS011;68816;45.558;10.070;2023-05-14T05:08:13;5.28;;;4.45;;
63738;SDS011;68816;45.558;10.070;2023-05-14T05:10:38;4.50;;;4.10;;
63738;SDS011;68816;45.558;10.070;2023-05-14T05:13:04;5.47;;;4.03;;
63738;SDS011;68816;45.558;10.070;2023-05-14T05:15:29;7.20;;;4.60;;
63738;SDS011;68816;45.558;10.070;2023-05-14T05:17:55;6.30;;;4.00;;
63738;SDS011;68816;45.558;10.070;2023-05-14T05:20:20;6.80;;;4.38;;
63738;SDS011;68816;45.558;10.070;2023-05-14T05:22:46;6.07;;;4.15;;
63738;SDS011;68816;45.558;10.070;2023-05-14T05:25:11;6.30;;;4.38;;
63738;SDS011;68816;45.558;10.070;2023-05-14T05:27:37;5.53;;;4.28;;
63738;SDS011;68816;45.558;10.070;2023-05-14T05:30:02;5.05;;;4.00;;
63738;SDS011;68816;45.558;10.070;2023-05-14T05:32:28;4.20;;;3.80;;
63738;SDS011;68816;45.558;10.070;2023-05-14T05:34:55;4.80;;;4.00;;
63738;SDS011;68816;45.558;10.070;2023-05-14T05:37:20;4.75;;;4.10;;
63738;SDS011;68816;45.558;10.070;2023-05-14T05:39:46;6.68;;;3.90;;
63738;SDS011;68816;45.558;10.070;2023-05-14T05:42:12;3.80;;;3.40;;
63738;SDS011;68816;45.558;10.070;2023-05-14T05:44:38;3.90;;;3.13;;
63738;SDS011;68816;45.558;10.070;2023-05-14T05:47:03;5.50;;;3.60;;
63738;SDS011;68816;45.558;10.070;2023-05-14T05:49:29;5.30;;;4.03;;
63738;SDS011;68816;45.558;10.070;2023-05-14T05:51:55;5.03;;;3.42;;
63738;SDS011;68816;45.558;10.070;2023-05-14T05:54:21;4.35;;;3.55;;
63738;SDS011;68816;45.558;10.070;2023-05-14T05:56:49;3.78;;;3.17;;
63738;SDS011;68816;45.558;10.070;2023-05-14T05:59:15;3.90;;;3.40;;
63738;SDS011;68816;45.558;10.070;2023-05-14T06:01:40;3.80;;;3.22;;
63738;SDS011;68816;45.558;10.070;2023-05-14T06:04:07;4.85;;;3.38;;
63738;SDS011;68816;45.558;10.070;2023-05-14T06:06:33;3.70;;;3.28;;
63738;SDS011;68816;45.558;10.070;2023-05-14T06:08:59;8.23;;;3.60;;
63738;SDS011;68816;45.558;10.070;2023-05-14T06:11:26;5.35;;;3.92;;
63738;SDS011;68816;45.558;10.070;2023-05-14T06:13:52;6.68;;;4.35;;
63738;SDS011;68816;45.558;10.070;2023-05-14T06:16:18;4.60;;;4.10;;
63738;SDS011;68816;45.558;10.070;2023-05-14T06:18:43;5.45;;;3.72;;
63738;SDS011;68816;45.558;10.070;2023-05-14T06:21:09;6.78;;;4.05;;
63738;SDS011;68816;45.558;10.070;2023-05-14T06:23:34;3.70;;;3.40;;
63738;SDS011;68816;45.558;10.070;2023-05-14T06:26:00;3.35;;;3.05;;
63738;SDS011;68816;45.558;10.070;2023-05-14T06:28:25;3.38;;;2.83;;
63738;SDS011;68816;45.558;10.070;2023-05-14T06:30:50;5.32;;;2.78;;
63738;SDS011;68816;45.558;10.070;2023-05-14T06:33:18;2.97;;;2.60;;
63738;SDS011;68816;45.558;10.070;2023-05-14T06:35:45;3.25;;;1.90;;
63738;SDS011;68816;45.558;10.070;2023-05-14T06:38:10;4.20;;;2.20;;
63738;SDS011;68816;45.558;10.070;2023-05-14T06:40:36;1.98;;;1.70;;
63738;SDS011;68816;45.558;10.070;2023-05-14T06:43:01;3.63;;;2.00;;
63738;SDS011;68816;45.558;10.070;2023-05-14T06:45:27;2.53;;;2.00;;
63738;SDS011;68816;45.558;10.070;2023-05-14T06:47:52;4.10;;;2.58;;
63738;SDS011;68816;45.558;10.070;2023-05-14T06:50:18;5.32;;;2.83;;
63738;SDS011;68816;45.558;10.070;2023-05-14T06:52:43;5.38;;;2.70;;
63738;SDS011;68816;45.558;10.070;2023-05-14T06:55:09;4.32;;;2.85;;
63738;SDS011;68816;45.558;10.070;2023-05-14T06:57:34;5.93;;;3.65;;
63738;SDS011;68816;45.558;10.070;2023-05-14T07:00:00;5.78;;;3.58;;
63738;SDS011;68816;45.558;10.070;2023-05-14T07:02:25;4.50;;;3.17;;
63738;SDS011;68816;45.558;10.070;2023-05-14T07:04:51;6.03;;;3.10;;
63738;SDS011;68816;45.558;10.070;2023-05-14T07:07:16;4.53;;;3.60;;
63738;SDS011;68816;45.558;10.070;2023-05-14T07:09:44;4.63;;;3.45;;
63738;SDS011;68816;45.558;10.070;2023-05-14T07:12:10;5.63;;;3.67;;
63738;SDS011;68816;45.558;10.070;2023-05-14T07:14:35;4.38;;;3.40;;
63738;SDS011;68816;45.558;10.070;2023-05-14T07:17:01;8.25;;;3.20;;
63738;SDS011;68816;45.558;10.070;2023-05-14T07:19:26;6.70;;;3.70;;
63738;SDS011;68816;45.558;10.070;2023-05-14T07:21:53;4.80;;;3.63;;
63738;SDS011;68816;45.558;10.070;2023-05-14T07:24:19;4.32;;;3.90;;
63738;SDS011;68816;45.558;10.070;2023-05-14T07:26:44;4.40;;;3.42;;
63738;SDS011;68816;45.558;10.070;2023-05-14T07:29:10;5.70;;;3.60;;
63738;SDS011;68816;45.558;10.070;2023-05-14T07:31:35;7.15;;;3.55;;
63738;SDS011;68816;45.558;10.070;2023-05-14T07:34:01;14.82;;;3.78;;
63738;SDS011;68816;45.558;10.070;2023-05-14T07:36:26;4.70;;;3.50;;
63738;SDS011;68816;45.558;10.070;2023-05-14T07:38:52;6.43;;;3.60;;
63738;SDS011;68816;45.558;10.070;2023-05-14T07:41:17;4.20;;;3.78;;
63738;SDS011;68816;45.558;10.070;2023-05-14T07:43:43;7.00;;;3.90;;
63738;SDS011;68816;45.558;10.070;2023-05-14T07:46:08;5.65;;;3.42;;
63738;SDS011;68816;45.558;10.070;2023-05-14T07:48:34;4.55;;;3.80;;
63738;SDS011;68816;45.558;10.070;2023-05-14T07:50:59;5.80;;;3.95;;
63738;SDS011;68816;45.558;10.070;2023-05-14T07:53:25;4.35;;;3.95;;
63738;SDS011;68816;45.558;10.070;2023-05-14T07:55:50;4.75;;;3.83;;
63738;SDS011;68816;45.558;10.070;2023-05-14T07:58:16;5.03;;;3.47;;
63738;SDS011;68816;45.558;10.070;2023-05-14T08:00:41;4.75;;;3.67;;
63738;SDS011;68816;45.558;10.070;2023-05-14T08:03:07;3.70;;;3.40;;
63738;SDS011;68816;45.558;10.070;2023-05-14T08:05:32;4.30;;;3.80;;
63738;SDS011;68816;45.558;10.070;2023-05-14T08:07:58;4.93;;;3.90;;
63738;SDS011;68816;45.558;10.070;2023-05-14T08:10:23;6.47;;;4.30;;
63738;SDS011;68816;45.558;10.070;2023-05-14T08:12:49;5.10;;;4.60;;
63738;SDS011;68816;45.558;10.070;2023-05-14T08:15:14;4.65;;;3.80;;
63738;SDS011;68816;45.558;10.070;2023-05-14T08:17:40;5.60;;;4.25;;
63738;SDS011;68816;45.558;10.070;2023-05-14T08:20:05;5.43;;;4.28;;
63738;SDS011;68816;45.558;10.070;2023-05-14T08:22:31;4.88;;;3.85;;
63738;SDS011;68816;45.558;10.070;2023-05-14T08:24:57;4.95;;;3.50;;
63738;SDS011;68816;45.558;10.070;2023-05-14T08:27:23;4.13;;;3.72;;
63738;SDS011;68816;45.558;10.070;2023-05-14T08:29:50;5.38;;;4.85;;
63738;SDS011;68816;45.558;10.070;2023-05-14T08:32:15;4.63;;;3.90;;
63738;SDS011;68816;45.558;10.070;2023-05-14T08:34:41;4.65;;;4.10;;
63738;SDS011;68816;45.558;10.070;2023-05-14T08:37:06;5.43;;;4.10;;
63738;SDS011;68816;45.558;10.070;2023-05-14T08:39:32;5.45;;;4.07;;
63738;SDS011;68816;45.558;10.070;2023-05-14T08:41:57;4.97;;;3.95;;
63738;SDS011;68816;45.558;10.070;2023-05-14T08:44:28;5.65;;;4.25;;
63738;SDS011;68816;45.558;10.070;2023-05-14T08:47:01;5.68;;;4.05;;
63738;SDS011;68816;45.558;10.070;2023-05-14T08:52:06;5.40;;;4.35;;
63738;SDS011;68816;45.558;10.070;2023-05-14T08:54:33;5.60;;;4.43;;
63738;SDS011;68816;45.558;10.070;2023-05-14T08:56:59;6.55;;;3.88;;
63738;SDS011;68816;45.558;10.070;2023-05-14T08:59:25;4.90;;;3.83;;
63738;SDS011;68816;45.558;10.070;2023-05-14T09:01:51;6.32;;;3.75;;
63738;SDS011;68816;45.558;10.070;2023-05-14T09:04:18;4.40;;;3.78;;
63738;SDS011;68816;45.558;10.070;2023-05-14T09:06:49;5.75;;;3.92;;
63738;SDS011;68816;45.558;10.070;2023-05-14T09:09:16;4.35;;;3.58;;
63738;SDS011;68816;45.558;10.070;2023-05-14T09:11:45;3.80;;;3.50;;
63738;SDS011;68816;45.558;10.070;2023-05-14T09:14:11;4.00;;;3.40;;
63738;SDS011;68816;45.558;10.070;2023-05-14T09:16:37;4.65;;;3.97;;
63738;SDS011;68816;45.558;10.070;2023-05-14T09:19:05;5.10;;;4.07;;
63738;SDS011;68816;45.558;10.070;2023-05-14T09:21:31;3.92;;;3.58;;
63738;SDS011;68816;45.558;10.070;2023-05-14T09:23:57;4.32;;;3.47;;
63738;SDS011;68816;45.558;10.070;2023-05-14T09:26:23;3.95;;;3.40;;
63738;SDS011;68816;45.558;10.070;2023-05-14T09:28:52;4.15;;;3.70;;
63738;SDS011;68816;45.558;10.070;2023-05-14T09:31:20;4.22;;;3.83;;
63738;SDS011;68816;45.558;10.070;2023-05-14T09:33:49;3.50;;;3.25;;
63738;SDS011;68816;45.558;10.070;2023-05-14T09:36:15;4.18;;;3.78;;
63738;SDS011;68816;45.558;10.070;2023-05-14T09:38:41;4.78;;;3.40;;
63738;SDS011;68816;45.558;10.070;2023-05-14T09:41:06;3.85;;;3.13;;
63738;SDS011;68816;45.558;10.070;2023-05-14T09:43:32;4.28;;;3.88;;
63738;SDS011;68816;45.558;10.070;2023-05-14T09:45:57;4.25;;;3.85;;
63738;SDS011;68816;45.558;10.070;2023-05-14T09:48:23;6.15;;;3.72;;
63738;SDS011;68816;45.558;10.070;2023-05-14T09:50:49;4.00;;;3.70;;
63738;SDS011;68816;45.558;10.070;2023-05-14T09:53:16;3.83;;;2.92;;
63738;SDS011;68816;45.558;10.070;2023-05-14T09:55:42;4.43;;;3.50;;
63738;SDS011;68816;45.558;10.070;2023-05-14T09:58:09;5.05;;;3.80;;
63738;SDS011;68816;45.558;10.070;2023-05-14T10:00:35;4.00;;;3.58;;
63738;SDS011;68816;45.558;10.070;2023-05-14T10:03:05;3.58;;;3.28;;
63738;SDS011;68816;45.558;10.070;2023-05-14T10:05:35;3.10;;;2.80;;
63738;SDS011;68816;45.558;10.070;2023-05-14T10:10:38;4.70;;;3.17;;
63738;SDS011;68816;45.558;10.070;2023-05-14T10:13:14;3.85;;;3.03;;
63738;SDS011;68816;45.558;10.070;2023-05-14T10:15:46;3.40;;;3.10;;
63738;SDS011;68816;45.558;10.070;2023-05-14T10:18:15;3.85;;;3.00;;
63738;SDS011;68816;45.558;10.070;2023-05-14T10:20:45;3.72;;;2.90;;
63738;SDS011;68816;45.558;10.070;2023-05-14T10:23:12;3.30;;;2.78;;
63738;SDS011;68816;45.558;10.070;2023-05-14T10:25:39;3.42;;;2.70;;
63738;SDS011;68816;45.558;10.070;2023-05-14T10:28:05;3.42;;;2.60;;
63738;SDS011;68816;45.558;10.070;2023-05-14T10:30:30;3.08;;;1.90;;
63738;SDS011;68816;45.558;10.070;2023-05-14T10:33:08;2.75;;;2.17;;
63738;SDS011;68816;45.558;10.070;2023-05-14T10:41:02;2.15;;;1.80;;
63738;SDS011;68816;45.558;10.070;2023-05-14T10:43:39;3.03;;;2.33;;
63738;SDS011;68816;45.558;10.070;2023-05-14T10:46:06;3.65;;;2.00;;
63738;SDS011;68816;45.558;10.070;2023-05-14T10:48:33;4.22;;;1.88;;
63738;SDS011;68816;45.558;10.070;2023-05-14T10:50:59;3.13;;;1.90;;
63738;SDS011;68816;45.558;10.070;2023-05-14T10:53:32;4.03;;;2.40;;
63738;SDS011;68816;45.558;10.070;2023-05-14T10:56:03;4.15;;;2.72;;
63738;SDS011;68816;45.558;10.070;2023-05-14T10:58:30;4.50;;;2.63;;
63738;SDS011;68816;45.558;10.070;2023-05-14T11:00:59;1.52;;;1.42;;
63738;SDS011;68816;45.558;10.070;2023-05-14T11:03:28;2.00;;;1.52;;
63738;SDS011;68816;45.558;10.070;2023-05-14T11:05:55;4.72;;;1.90;;
63738;SDS011;68816;45.558;10.070;2023-05-14T11:08:21;2.20;;;1.67;;
63738;SDS011;68816;45.558;10.070;2023-05-14T11:10:47;2.03;;;1.25;;
63738;SDS011;68816;45.558;10.070;2023-05-14T11:13:13;2.60;;;2.00;;
63738;SDS011;68816;45.558;10.070;2023-05-14T11:15:40;2.10;;;1.70;;
63738;SDS011;68816;45.558;10.070;2023-05-14T11:18:12;2.65;;;1.50;;
63738;SDS011;68816;45.558;10.070;2023-05-14T11:20:37;2.30;;;1.33;;
63738;SDS011;68816;45.558;10.070;2023-05-14T11:23:03;1.95;;;1.30;;
63738;SDS011;68816;45.558;10.070;2023-05-14T11:25:28;3.28;;;1.30;;
63738;SDS011;68816;45.558;10.070;2023-05-14T11:27:54;3.95;;;1.30;;
63738;SDS011;68816;45.558;10.070;2023-05-14T11:30:24;11.90;;;8.05;;
63738;SDS011;68816;45.558;10.070;2023-05-14T11:32:50;2.30;;;1.58;;
63738;SDS011;68816;45.558;10.070;2023-05-14T11:35:16;3.15;;;1.30;;
63738;SDS011;68816;45.558;10.070;2023-05-14T11:37:42;3.88;;;2.92;;
63738;SDS011;68816;45.558;10.070;2023-05-14T11:40:08;5.18;;;3.25;;
63738;SDS011;68816;45.558;10.070;2023-05-14T11:42:40;3.45;;;2.80;;
63738;SDS011;68816;45.558;10.070;2023-05-14T11:45:05;4.03;;;2.80;;
63738;SDS011;68816;45.558;10.070;2023-05-14T11:47:35;5.30;;;3.42;;
63738;SDS011;68816;45.558;10.070;2023-05-14T11:50:00;2.95;;;2.45;;
63738;SDS011;68816;45.558;10.070;2023-05-14T11:52:26;3.47;;;3.13;;
63738;SDS011;68816;45.558;10.070;2023-05-14T11:54:51;6.82;;;5.43;;
63738;SDS011;68816;45.558;10.070;2023-05-14T11:57:20;2.80;;;2.50;;
63738;SDS011;68816;45.558;10.070;2023-05-14T11:59:47;10.75;;;7.05;;
63738;SDS011;68816;45.558;10.070;2023-05-14T12:02:18;4.18;;;3.10;;
63738;SDS011;68816;45.558;10.070;2023-05-14T12:04:48;5.00;;;3.65;;
63738;SDS011;68816;45.558;10.070;2023-05-14T12:07:16;4.63;;;3.08;;
63738;SDS011;68816;45.558;10.070;2023-05-14T12:09:42;4.47;;;3.85;;
63738;SDS011;68816;45.558;10.070;2023-05-14T12:12:16;5.28;;;2.78;;
63738;SDS011;68816;45.558;10.070;2023-05-14T12:14:43;3.33;;;2.60;;
63738;SDS011;68816;45.558;10.070;2023-05-14T12:17:27;3.33;;;3.03;;
63738;SDS011;68816;45.558;10.070;2023-05-14T12:19:52;7.55;;;6.50;;
63738;SDS011;68816;45.558;10.070;2023-05-14T12:22:20;5.18;;;2.97;;
63738;SDS011;68816;45.558;10.070;2023-05-14T12:24:56;2.33;;;1.95;;
63738;SDS011;68816;45.558;10.070;2023-05-14T12:27:24;2.00;;;1.67;;
63738;SDS011;68816;45.558;10.070;2023-05-14T12:32:32;6.68;;;4.70;;
63738;SDS011;68816;45.558;10.070;2023-05-14T12:34:59;9.07;;;8.18;;
63738;SDS011;68816;45.558;10.070;2023-05-14T12:37:27;10.90;;;8.57;;
63738;SDS011;68816;45.558;10.070;2023-05-14T12:39:52;9.70;;;8.70;;
63738;SDS011;68816;45.558;10.070;2023-05-14T12:42:18;10.63;;;8.77;;
63738;SDS011;68816;45.558;10.070;2023-05-14T12:44:43;10.68;;;9.57;;
63738;SDS011;68816;45.558;10.070;2023-05-14T12:47:09;10.02;;;9.00;;
63738;SDS011;68816;45.558;10.070;2023-05-14T12:49:34;10.73;;;8.85;;
63738;SDS011;68816;45.558;10.070;2023-05-14T12:52:00;9.77;;;8.73;;
63738;SDS011;68816;45.558;10.070;2023-05-14T12:54:25;14.75;;;10.05;;
63738;SDS011;68816;45.558;10.070;2023-05-14T12:56:51;21.50;;;13.88;;
63738;SDS011;68816;45.558;10.070;2023-05-14T12:59:16;12.95;;;8.93;;
63738;SDS011;68816;45.558;10.070;2023-05-14T13:01:42;42.22;;;25.73;;
63738;SDS011;68816;45.558;10.070;2023-05-14T13:04:08;14.98;;;11.30;;
63738;SDS011;68816;45.558;10.070;2023-05-14T13:06:36;14.10;;;11.30;;
63738;SDS011;68816;45.558;10.070;2023-05-14T13:09:03;8.77;;;7.07;;
63738;SDS011;68816;45.558;10.070;2023-05-14T13:11:28;8.30;;;7.50;;
63738;SDS011;68816;45.558;10.070;2023-05-14T13:13:56;11.18;;;8.10;;
63738;SDS011;68816;45.558;10.070;2023-05-14T13:16:23;9.25;;;7.00;;
63738;SDS011;68816;45.558;10.070;2023-05-14T13:18:49;10.38;;;8.13;;
63738;SDS011;68816;45.558;10.070;2023-05-14T13:21:15;10.20;;;8.63;;
63738;SDS011;68816;45.558;10.070;2023-05-14T13:23:40;9.45;;;7.68;;
63738;SDS011;68816;45.558;10.070;2023-05-14T13:26:06;9.18;;;7.88;;
63738;SDS011;68816;45.558;10.070;2023-05-14T13:28:31;9.52;;;8.02;;
63738;SDS011;68816;45.558;10.070;2023-05-14T13:31:06;11.70;;;9.70;;
63738;SDS011;68816;45.558;10.070;2023-05-14T13:33:34;9.18;;;8.10;;
63738;SDS011;68816;45.558;10.070;2023-05-14T13:36:00;9.68;;;8.15;;
63738;SDS011;68816;45.558;10.070;2023-05-14T13:38:26;9.63;;;8.50;;
63738;SDS011;68816;45.558;10.070;2023-05-14T13:40:51;10.48;;;9.15;;
63738;SDS011;68816;45.558;10.070;2023-05-14T13:43:18;12.45;;;9.27;;
63738;SDS011;68816;45.558;10.070;2023-05-14T13:45:43;12.07;;;10.00;;
63738;SDS011;68816;45.558;10.070;2023-05-14T13:48:09;14.98;;;10.63;;
63738;SDS011;68816;45.558;10.070;2023-05-14T13:50:35;16.90;;;10.82;;
63738;SDS011;68816;45.558;10.070;2023-05-14T13:53:00;14.10;;;10.43;;
63738;SDS011;68816;45.558;10.070;2023-05-14T13:55:25;13.35;;;10.05;;
63738;SDS011;68816;45.558;10.070;2023-05-14T13:57:52;22.13;;;10.95;;
63738;SDS011;68816;45.558;10.070;2023-05-14T14:00:18;16.20;;;10.85;;
63738;SDS011;68816;45.558;10.070;2023-05-14T14:02:44;13.02;;;10.30;;
63738;SDS011;68816;45.558;10.070;2023-05-14T14:05:15;14.07;;;10.77;;
63738;SDS011;68816;45.558;10.070;2023-05-14T14:08:11;15.98;;;11.52;;
63738;SDS011;68816;45.558;10.070;2023-05-14T14:10:36;13.10;;;10.02;;
63738;SDS011;68816;45.558;10.070;2023-05-14T14:13:07;19.67;;;12.95;;
63738;SDS011;68816;45.558;10.070;2023-05-14T14:15:33;13.45;;;9.75;;
63738;SDS011;68816;45.558;10.070;2023-05-14T14:17:59;13.02;;;9.45;;
63738;SDS011;68816;45.558;10.070;2023-05-14T14:20:32;13.85;;;9.88;;
63738;SDS011;68816;45.558;10.070;2023-05-14T14:22:59;12.98;;;8.48;;
63738;SDS011;68816;45.558;10.070;2023-05-14T14:25:25;14.07;;;9.20;;
63738;SDS011;68816;45.558;10.070;2023-05-14T14:27:57;12.90;;;8.33;;
63738;SDS011;68816;45.558;10.070;2023-05-14T14:30:23;12.05;;;8.98;;
63738;SDS011;68816;45.558;10.070;2023-05-14T14:32:49;13.40;;;9.15;;
63738;SDS011;68816;45.558;10.070;2023-05-14T14:35:25;11.05;;;8.68;;
63738;SDS011;68816;45.558;10.070;2023-05-14T14:37:52;10.13;;;8.38;;
63738;SDS011;68816;45.558;10.070;2023-05-14T14:40:19;12.60;;;10.52;;
63738;SDS011;68816;45.558;10.070;2023-05-14T14:42:46;11.68;;;8.10;;